Time;durP1;ratioP1;P1;durP2;ratioP2;P2;SDS_P1;SDS_P2;PMS_P1;PMS_P2;Temp;Humidity;BMP_temperature;BMP_pressure;BME280_temperature;BME280_humidity;BME280_pressure;Samples;Min_cycle;Max_cycle;Signal;HPM_P1;HPM_P2
2022/11/27 00:00:59;;;;;;;9.15;3.80;;;;;;;4.98;90.34;102469.44;5072087;28;20103;-76
2022/11/27 00:03:25;;;;;;;9.57;3.15;;;;;;;4.97;90.10;102457.38;5071033;28;20040;-77
2022/11/27 00:05:56;;;;;;;9.23;3.17;;;;;;;4.95;90.25;102454.75;5073899;28;20036;-76
2022/11/27 00:08:23;;;;;;;10.48;3.83;;;;;;;4.96;90.35;102456.50;5074246;28;20432;-77
2022/11/27 00:10:48;;;;;;;11.63;3.70;;;;;;;4.95;89.97;102451.31;5072408;28;20387;-76
2022/11/27 00:13:13;;;;;;;7.45;3.45;;;;;;;4.95;90.34;102444.44;5071090;28;20082;-76
2022/11/27 00:15:39;;;;;;;9.43;3.33;;;;;;;4.92;89.74;102446.97;5073126;28;20024;-77
2022/11/27 00:18:04;;;;;;;9.85;3.78;;;;;;;4.90;89.91;102438.31;5069701;28;20074;-77
2022/11/27 00:20:29;;;;;;;11.60;3.72;;;;;;;4.88;90.24;102437.41;5069217;28;20032;-76
2022/11/27 00:22:55;;;;;;;10.70;3.50;;;;;;;4.86;89.92;102432.22;5071966;28;20050;-77
2022/11/27 00:25:20;;;;;;;10.23;3.50;;;;;;;4.84;89.85;102423.56;5073370;28;20444;-76
2022/11/27 00:27:45;;;;;;;11.18;3.42;;;;;;;4.82;89.70;102432.09;5075149;28;20032;-77
2022/11/27 00:30:11;;;;;;;9.93;3.80;;;;;;;4.79;89.93;102426.84;5058277;28;20024;-77
2022/11/27 00:32:36;;;;;;;8.75;3.83;;;;;;;4.75;89.48;102431.06;5073610;28;20043;-77
2022/11/27 00:35:02;;;;;;;10.55;3.58;;;;;;;4.73;89.52;102426.72;5071060;28;20023;-77
2022/11/27 00:37:27;;;;;;;7.38;4.03;;;;;;;4.70;89.89;102430.97;5074755;28;20466;-77
2022/11/27 00:39:52;;;;;;;10.05;3.95;;;;;;;4.67;89.55;102420.56;5076597;28;20043;-77
2022/11/27 00:42:18;;;;;;;9.60;4.03;;;;;;;4.65;89.87;102414.50;5075588;28;20396;-77
2022/11/27 00:44:43;;;;;;;10.07;3.90;;;;;;;4.64;90.04;102407.59;5070339;28;20118;-77
2022/11/27 00:47:08;;;;;;;10.75;3.78;;;;;;;4.61;89.95;102407.53;5065469;28;20036;-77
2022/11/27 00:49:33;;;;;;;7.75;3.58;;;;;;;4.58;89.55;102402.31;5070643;28;20031;-77
2022/11/27 00:51:59;;;;;;;10.93;4.20;;;;;;;4.55;89.88;102408.25;5072761;28;20039;-77
2022/11/27 00:54:24;;;;;;;9.13;3.65;;;;;;;4.53;89.98;102409.91;5072860;28;20387;-76
2022/11/27 00:56:49;;;;;;;10.00;3.77;;;;;;;4.51;89.75;102403.88;5078484;28;20089;-76
2022/11/27 00:59:14;;;;;;;9.43;3.50;;;;;;;4.48;89.65;102413.22;5066454;28;20024;-76
2022/11/27 01:01:41;;;;;;;8.47;3.73;;;;;;;4.46;89.58;102405.47;5068074;28;20436;-77
2022/11/27 01:04:12;;;;;;;8.57;3.60;;;;;;;4.44;89.68;102412.28;5059658;28;20035;-76
2022/11/27 01:06:38;;;;;;;10.20;3.60;;;;;;;4.43;90.01;102401.94;5071963;28;20433;-76
2022/11/27 01:09:03;;;;;;;9.40;4.00;;;;;;;4.43;89.95;102401.94;5072146;28;20033;-76
2022/11/27 01:11:32;;;;;;;8.33;3.63;;;;;;;4.42;89.67;102397.63;5071089;28;20032;-77
2022/11/27 01:14:04;;;;;;;8.73;3.57;;;;;;;4.41;89.38;102396.72;5071924;28;20082;-76
2022/11/27 01:16:31;;;;;;;7.57;3.42;;;;;;;4.39;89.80;102383.81;5071716;28;20029;-77
2022/11/27 01:18:59;;;;;;;8.77;3.43;;;;;;;4.37;89.50;102382.91;5070087;28;20054;-77
2022/11/27 01:21:27;;;;;;;7.17;3.17;;;;;;;4.37;89.83;102372.59;5069677;28;20051;-76
2022/11/27 01:23:53;;;;;;;11.18;3.70;;;;;;;4.36;89.88;102376.00;5069309;28;20450;-77
2022/11/27 01:26:18;;;;;;;6.37;3.30;;;;;;;4.34;89.72;102374.25;5065621;28;20068;-77
2022/11/27 01:28:44;;;;;;;8.33;3.43;;;;;;;4.32;89.87;102371.59;5072141;28;20026;-76
2022/11/27 01:31:15;;;;;;;10.23;3.67;;;;;;;4.30;89.50;102365.53;5070945;28;20024;-77
2022/11/27 01:33:41;;;;;;;5.72;3.28;;;;;;;4.31;89.35;102376.75;5067050;28;20094;-77
2022/11/27 01:36:08;;;;;;;6.90;3.33;;;;;;;4.30;89.83;102375.00;5071464;28;20451;-76
2022/11/27 01:38:34;;;;;;;6.67;3.40;;;;;;;4.28;89.98;102367.22;5071496;28;20016;-77
2022/11/27 01:41:24;;;;;;;7.33;3.40;;;;;;;4.30;89.63;102362.13;5072786;28;20024;-76
2022/11/27 01:43:57;;;;;;;8.63;3.67;;;;;;;4.28;89.68;102351.75;5067739;28;20055;-76
2022/11/27 01:46:38;;;;;;;7.70;4.00;;;;;;;4.27;89.85;102355.16;5071517;28;20023;-77
2022/11/27 01:49:17;;;;;;;7.70;3.67;;;;;;;4.26;89.68;102353.44;5068047;28;20028;-77
2022/11/27 01:51:59;;;;;;;8.37;3.87;;;;;;;4.26;89.86;102358.59;5066575;28;20028;-77
2022/11/27 01:54:35;;;;;;;;;;;;;;;4.29;89.46;102348.34;5061599;28;20037;-77
2022/11/27 01:57:07;;;;;;;8.18;3.45;;;;;;;4.28;89.57;102346.59;5053790;28;19918;-76
2022/11/27 01:59:32;;;;;;;8.23;3.83;;;;;;;4.30;90.02;102351.81;5070987;28;20025;-76
2022/11/27 02:01:59;;;;;;;7.73;3.57;;;;;;;4.29;89.69;102330.31;5068122;28;20246;-76
2022/11/27 02:04:24;;;;;;;7.30;4.00;;;;;;;4.30;89.79;102328.63;5070647;28;20100;-77
2022/11/27 02:06:50;;;;;;;7.53;4.27;;;;;;;4.29;90.00;102317.41;5073038;28;20108;-76
2022/11/27 02:09:15;;;;;;;8.10;3.77;;;;;;;4.29;89.85;102321.72;5063867;28;20060;-77
2022/11/27 02:12:15;;;;;;;10.43;3.90;;;;;;;4.27;89.78;102311.34;5072770;28;20063;-76
2022/11/27 02:14:41;;;;;;;9.43;3.73;;;;;;;4.24;89.45;102290.69;5063598;28;20033;-76
2022/11/27 02:17:41;;;;;;;6.50;4.00;;;;;;;4.21;89.61;102288.06;5057083;28;20106;-76
2022/11/27 02:20:18;;;;;;;8.63;3.90;;;;;;;4.16;89.07;102274.19;5066282;28;20031;-76
2022/11/27 02:23:02;;;;;;;9.43;4.27;;;;;;;4.16;89.26;102269.03;5055702;28;20029;-76
2022/11/27 02:25:46;;;;;;;8.47;3.67;;;;;;;4.12;89.07;102267.19;5081225;28;20031;-77
2022/11/27 02:28:33;;;;;;;7.97;3.77;;;;;;;4.09;89.40;102262.88;5060007;28;20057;-76
2022/11/27 02:31:12;;;;;;;5.90;3.47;;;;;;;4.06;89.40;102255.94;5058881;28;20017;-76
2022/11/27 02:33:44;;;;;;;6.23;3.40;;;;;;;4.04;89.09;102254.13;5058170;28;20050;-76
2022/11/27 02:36:13;;;;;;;;;;;;;;;4.06;89.19;102258.50;5059492;28;20021;-76
2022/11/27 02:38:45;;;;;;;6.50;3.20;;;;;;;4.01;89.25;102257.53;5074031;28;19908;-76
2022/11/27 02:41:23;;;;;;;6.87;3.43;;;;;;;4.00;88.96;102253.22;5054549;28;20025;-76
2022/11/27 02:43:51;;;;;;;7.40;3.23;;;;;;;3.98;89.21;102259.16;5062395;28;20024;-76
2022/11/27 02:46:19;;;;;;;8.10;3.40;;;;;;;3.95;88.65;102257.38;5055567;28;20148;-76
2022/11/27 02:49:13;;;;;;;7.17;3.13;;;;;;;3.97;89.04;102257.41;5061097;28;20031;-76
2022/11/27 02:51:43;;;;;;;8.53;3.23;;;;;;;3.94;89.22;102264.22;5059961;28;20035;-76
2022/11/27 02:54:16;;;;;;;7.53;3.03;;;;;;;3.95;89.05;102259.94;5056234;28;20017;-76
2022/11/27 02:56:43;;;;;;;7.83;3.13;;;;;;;3.96;88.94;102261.69;5075288;28;20024;-77
2022/11/27 02:59:12;;;;;;;7.57;3.20;;;;;;;3.97;89.04;102258.28;5090403;28;20020;-76
2022/11/27 03:01:44;;;;;;;6.67;3.13;;;;;;;3.99;89.08;102253.19;5067138;28;20043;-76
2022/11/27 03:04:16;;;;;;;5.88;2.67;;;;;;;3.98;89.05;102249.72;5056373;28;20024;-76
2022/11/27 03:06:46;;;;;;;7.73;2.87;;;;;;;4.00;88.98;102250.63;5063149;28;20112;-76
2022/11/27 03:09:17;;;;;;;6.33;2.83;;;;;;;4.00;88.89;102249.78;5055695;28;20033;-76
2022/11/27 03:11:44;;;;;;;6.90;2.90;;;;;;;4.02;88.97;102261.84;5063800;28;20019;-76
2022/11/27 03:14:11;;;;;;;7.53;3.00;;;;;;;4.03;88.68;102262.69;5076501;28;20089;-76
2022/11/27 03:17:05;;;;;;;6.60;3.00;;;;;;;4.06;88.93;102265.34;5075866;28;20498;-76
2022/11/27 03:19:52;;;;;;;6.53;2.83;;;;;;;4.07;88.89;102264.53;5041492;28;20041;-76
2022/11/27 03:22:18;;;;;;;7.07;2.73;;;;;;;4.08;88.64;102254.28;5071337;28;20115;-76
2022/11/27 03:24:43;;;;;;;6.33;2.90;;;;;;;4.10;88.95;102250.00;5075691;28;20103;-76
2022/11/27 03:27:13;;;;;;;8.13;3.00;;;;;;;4.14;88.96;102239.78;5071814;28;20053;-77
2022/11/27 03:29:45;;;;;;;7.17;2.73;;;;;;;4.16;88.73;102240.69;5065244;28;20024;-76
2022/11/27 03:32:10;;;;;;;;;;;;;;;4.22;89.22;102225.41;5076531;28;20032;-76
2022/11/27 03:34:36;;;;;;;5.77;2.50;;;;;;;4.21;88.88;102233.94;5076018;28;19913;-76
2022/11/27 03:37:03;;;;;;;5.77;2.37;;;;;;;4.21;88.64;102232.22;5073691;28;20131;-76
2022/11/27 03:39:29;;;;;;;8.73;2.47;;;;;;;4.23;88.65;102235.72;5060272;28;20017;-76
2022/11/27 03:42:19;;;;;;;8.03;2.50;;;;;;;4.23;88.36;102237.44;5075776;28;20033;-76
2022/11/27 03:45:03;;;;;;;5.93;2.40;;;;;;;4.24;88.31;102236.59;5074608;28;20108;-76
2022/11/27 03:47:44;;;;;;;6.77;2.27;;;;;;;4.25;88.72;102234.06;5075593;28;20446;-77
2022/11/27 03:50:27;;;;;;;7.85;2.25;;;;;;;4.28;88.33;102237.53;5074690;28;20020;-77
2022/11/27 03:52:59;;;;;;;5.00;2.30;;;;;;;4.28;88.25;102217.78;5060527;28;20083;-77
2022/11/27 03:55:49;;;;;;;4.82;2.50;;;;;;;4.28;88.64;102212.63;5056829;28;20056;-76
2022/11/27 03:58:21;;;;;;;6.30;2.30;;;;;;;4.27;88.46;102218.63;5069605;28;20016;-77
2022/11/27 04:00:50;;;;;;;6.97;2.20;;;;;;;4.25;87.74;102223.75;5055277;28;20028;-77
2022/11/27 04:03:22;;;;;;;5.60;2.50;;;;;;;4.26;88.31;102219.47;5072470;28;20024;-77
2022/11/27 04:05:47;;;;;;;5.97;2.20;;;;;;;4.28;88.51;102215.22;5075419;28;20493;-76
2022/11/27 04:08:13;;;;;;;4.73;2.17;;;;;;;4.29;88.12;102219.53;5057073;28;20159;-76
2022/11/27 04:10:38;;;;;;;6.60;2.10;;;;;;;4.30;88.27;102230.72;5060037;28;20096;-76
2022/11/27 04:13:03;;;;;;;4.07;2.10;;;;;;;4.30;88.28;102215.25;5072897;28;20032;-76
2022/11/27 04:15:29;;;;;;;5.37;1.93;;;;;;;4.31;88.39;102209.28;5069933;28;20476;-76
2022/11/27 04:17:54;;;;;;;4.87;1.90;;;;;;;4.31;87.96;102209.28;5067343;28;20036;-76
2022/11/27 04:20:19;;;;;;;5.83;2.07;;;;;;;4.31;87.64;102207.56;5073727;28;20098;-76
2022/11/27 04:22:44;;;;;;;7.37;2.43;;;;;;;4.30;87.87;102210.97;5064339;28;20051;-76
2022/11/27 04:25:10;;;;;;;5.03;2.00;;;;;;;4.31;87.54;102206.69;5077441;28;20039;-76
2022/11/27 04:27:35;;;;;;;8.07;2.03;;;;;;;4.31;87.71;102212.72;5077716;28;20463;-77
2022/11/27 04:30:01;;;;;;;4.97;2.03;;;;;;;4.31;87.63;102215.28;5059319;28;20108;-76
2022/11/27 04:32:26;;;;;;;5.60;1.97;;;;;;;4.31;87.18;102217.84;5061094;28;20056;-76
2022/11/27 04:34:51;;;;;;;4.13;1.77;;;;;;;4.33;87.57;102221.34;5072734;28;20047;-76
2022/11/27 04:37:16;;;;;;;6.50;1.90;;;;;;;4.33;87.24;102223.91;5087568;28;20046;-76
2022/11/27 04:39:42;;;;;;;4.20;1.70;;;;;;;4.33;87.02;102213.63;5072149;28;20052;-77
2022/11/27 04:42:07;;;;;;;6.53;2.07;;;;;;;4.34;86.95;102211.94;5070980;28;20028;-76
2022/11/27 04:44:32;;;;;;;5.53;1.97;;;;;;;4.35;87.20;102211.09;5073106;28;20036;-76
2022/11/27 04:46:58;;;;;;;4.97;1.77;;;;;;;4.36;86.74;102215.38;5085741;28;20103;-76
2022/11/27 04:49:23;;;;;;;4.77;1.67;;;;;;;4.36;87.37;102218.84;5068418;28;20383;-76
2022/11/27 04:51:48;;;;;;;5.80;1.80;;;;;;;4.36;87.03;102221.41;5090571;28;20085;-76
2022/11/27 04:54:13;;;;;;;4.80;1.83;;;;;;;4.35;86.50;102214.53;5091917;28;20039;-76
2022/11/27 04:56:39;;;;;;;5.30;1.80;;;;;;;4.35;86.26;102209.38;5061424;28;20025;-77
2022/11/27 04:59:04;;;;;;;4.23;1.60;;;;;;;4.35;86.08;102200.78;5054345;28;20029;-76
2022/11/27 05:01:30;;;;;;;4.77;1.70;;;;;;;4.35;86.87;102198.22;5075821;28;20028;-77
2022/11/27 05:03:55;;;;;;;7.22;1.70;;;;;;;4.34;86.38;102184.44;5091034;28;20087;-77
2022/11/27 05:06:21;;;;;;;4.45;1.52;;;;;;;4.34;86.94;102174.13;5072525;28;20028;-76
2022/11/27 05:08:47;;;;;;;6.43;1.80;;;;;;;4.34;86.72;102168.97;5067244;28;20119;-76
2022/11/27 05:11:14;;;;;;;6.35;1.73;;;;;;;4.35;87.04;102167.28;5087703;28;20118;-76
2022/11/27 05:13:40;;;;;;;4.17;1.80;;;;;;;4.35;86.78;102178.44;5091805;28;20355;-76
2022/11/27 05:16:06;;;;;;;3.50;1.90;;;;;;;4.34;86.60;102179.28;5087054;28;20035;-76
2022/11/27 05:18:31;;;;;;;5.97;1.90;;;;;;;4.35;86.55;102168.16;5092473;28;20087;-76
2022/11/27 05:21:07;;;;;;;5.13;1.93;;;;;;;4.35;86.53;102162.13;5084981;28;20043;-76
2022/11/27 05:23:32;;;;;;;5.43;1.67;;;;;;;4.37;86.70;102163.00;5078584;28;20024;-76
2022/11/27 05:25:58;;;;;;;5.00;1.77;;;;;;;4.39;86.85;102163.91;5081442;28;20382;-76
2022/11/27 05:28:23;;;;;;;4.90;1.90;;;;;;;4.40;86.85;102166.56;5054648;28;20029;-76
2022/11/27 05:30:49;;;;;;;5.67;1.67;;;;;;;4.41;86.54;102151.94;5071371;28;20024;-76
2022/11/27 05:33:15;;;;;;;4.03;1.77;;;;;;;4.44;87.08;102153.72;5079099;28;20024;-76
2022/11/27 05:35:41;;;;;;;7.00;1.80;;;;;;;4.44;86.57;102148.59;5076454;28;20025;-76
2022/11/27 05:38:07;;;;;;;4.50;1.80;;;;;;;4.45;86.34;102147.72;5057548;28;20048;-76
2022/11/27 05:40:32;;;;;;;5.43;2.03;;;;;;;4.45;86.19;102143.44;5080392;28;20387;-76
2022/11/27 05:42:58;;;;;;;7.30;2.10;;;;;;;4.47;86.46;102146.03;5082859;28;20027;-76
2022/11/27 05:45:23;;;;;;;4.77;1.73;;;;;;;4.48;86.33;102145.22;5072451;28;20016;-76
2022/11/27 05:47:48;;;;;;;4.93;1.80;;;;;;;4.51;86.36;102147.84;5077469;28;20055;-76
2022/11/27 05:50:13;;;;;;;7.77;2.30;;;;;;;4.52;86.17;102140.16;5072295;28;20069;-76
2022/11/27 05:52:39;;;;;;;7.03;2.20;;;;;;;4.53;86.38;102133.28;5077405;28;20028;-76
2022/11/27 05:55:05;;;;;;;5.80;1.83;;;;;;;4.53;86.16;102133.28;5087379;28;20106;-76
2022/11/27 05:57:30;;;;;;;4.03;1.73;;;;;;;4.55;86.47;102134.19;5077014;28;20024;-76
2022/11/27 05:59:56;;;;;;;4.53;2.13;;;;;;;4.58;86.71;102128.22;5077478;28;20104;-76
2022/11/27 06:02:22;;;;;;;5.27;2.00;;;;;;;4.60;86.35;102131.72;5070614;28;20024;-77
2022/11/27 06:04:47;;;;;;;5.83;1.93;;;;;;;4.61;86.25;102124.00;5085779;28;20034;-77
2022/11/27 06:07:12;;;;;;;4.50;1.77;;;;;;;4.62;86.21;102109.41;5066885;28;20047;-76
2022/11/27 06:09:38;;;;;;;4.63;1.90;;;;;;;4.60;86.55;102111.97;5079775;28;20061;-77
2022/11/27 06:12:03;;;;;;;5.80;2.00;;;;;;;4.62;86.58;102099.94;5057836;28;20055;-76
2022/11/27 06:14:30;;;;;;;4.73;2.10;;;;;;;4.63;86.28;102106.84;5078216;28;20026;-76
2022/11/27 06:16:56;;;;;;;4.77;2.00;;;;;;;4.64;85.87;102108.59;5084620;28;20086;-76
2022/11/27 06:19:21;;;;;;;6.05;2.33;;;;;;;4.65;86.23;102106.91;5065520;28;20049;-76
2022/11/27 06:21:47;;;;;;;4.90;2.07;;;;;;;4.66;85.78;102100.91;5067076;28;20039;-76
2022/11/27 06:24:12;;;;;;;4.70;2.05;;;;;;;4.68;86.35;102107.81;5077724;28;20029;-77
2022/11/27 06:26:37;;;;;;;5.30;2.20;;;;;;;4.69;86.50;102099.25;5075371;28;20028;-76
2022/11/27 06:29:03;;;;;;;5.23;2.27;;;;;;;4.71;86.15;102102.72;5056008;28;20439;-76
2022/11/27 06:31:30;;;;;;;6.57;2.53;;;;;;;4.72;86.11;102098.44;5059172;28;20100;-76
2022/11/27 06:33:56;;;;;;;6.70;2.50;;;;;;;4.74;85.98;102093.31;5056382;28;20436;-76
2022/11/27 06:36:24;;;;;;;5.37;2.47;;;;;;;4.75;85.49;102097.63;5057360;28;20147;-77
2022/11/27 06:38:49;;;;;;;5.45;2.33;;;;;;;4.75;86.19;102102.78;5058134;28;20471;-76
2022/11/27 06:41:19;;;;;;;5.88;2.45;;;;;;;4.77;86.19;102093.38;5060007;28;20079;-76
2022/11/27 06:43:44;;;;;;;5.27;2.17;;;;;;;4.77;85.72;102093.38;5058210;28;20039;-77
2022/11/27 06:46:14;;;;;;;4.53;2.30;;;;;;;4.77;85.09;102107.13;5068704;28;20041;-77
2022/11/27 06:48:39;;;;;;;7.47;2.43;;;;;;;4.78;85.39;102106.28;5058730;28;20028;-76
2022/11/27 06:51:06;;;;;;;4.35;2.30;;;;;;;4.80;85.88;102106.31;5058420;28;20028;-76
2022/11/27 06:53:34;;;;;;;5.20;2.30;;;;;;;4.81;85.78;102102.88;5056248;28;20024;-76
2022/11/27 06:56:02;;;;;;;6.22;2.42;;;;;;;4.83;85.12;102107.25;5057914;28;20086;-76
2022/11/27 06:58:27;;;;;;;5.80;2.70;;;;;;;4.83;84.93;102102.09;5057879;28;20032;-76
2022/11/27 07:00:59;;;;;;;5.67;2.30;;;;;;;4.84;85.57;102097.78;5056443;28;20040;-76
2022/11/27 07:03:25;;;;;;;;;;;;;;;4.90;86.08;102095.34;5060788;28;20056;-76
2022/11/27 07:05:50;;;;;;;6.70;2.60;;;;;;;4.87;85.58;102100.44;5057094;28;20374;-76
2022/11/27 07:08:15;;;;;;;4.03;2.17;;;;;;;4.87;85.56;102095.28;5068260;28;20063;-76
2022/11/27 07:10:40;;;;;;;7.05;2.63;;;;;;;4.86;85.96;102084.09;5057090;28;20048;-77
2022/11/27 07:13:06;;;;;;;7.10;2.35;;;;;;;4.88;86.01;102091.84;5065314;28;20032;-76
2022/11/27 07:15:32;;;;;;;8.17;2.90;;;;;;;4.87;86.46;102074.66;5065434;28;20036;-76
2022/11/27 07:17:57;;;;;;;5.68;2.85;;;;;;;4.88;86.35;102076.38;5058761;28;20048;-76
2022/11/27 07:20:22;;;;;;;4.80;2.90;;;;;;;4.88;86.97;102066.06;5062917;28;20166;-76
2022/11/27 07:22:48;;;;;;;5.68;3.08;;;;;;;4.91;87.08;102065.25;5057929;28;20039;-76
2022/11/27 07:25:13;;;;;;;8.45;2.80;;;;;;;4.89;86.77;102066.91;5058200;28;20035;-76
2022/11/27 07:27:38;;;;;;;8.35;3.15;;;;;;;4.88;86.69;102060.03;5058730;28;20390;-76
2022/11/27 07:30:04;;;;;;;6.47;3.05;;;;;;;4.88;87.38;102060.03;5067842;28;20074;-76
2022/11/27 07:32:30;;;;;;;6.18;3.03;;;;;;;4.89;87.37;102059.19;5061854;28;20394;-76
2022/11/27 07:34:55;;;;;;;7.50;3.35;;;;;;;4.90;87.70;102059.22;5065571;28;20036;-76
2022/11/27 07:37:21;;;;;;;8.15;3.20;;;;;;;4.91;87.71;102049.78;5059145;28;20455;-77
2022/11/27 07:39:46;;;;;;;6.22;2.88;;;;;;;4.88;88.02;102048.03;5057714;28;20025;-76
2022/11/27 07:42:11;;;;;;;6.45;2.88;;;;;;;4.90;88.44;102042.88;5056585;28;20036;-76
2022/11/27 07:44:37;;;;;;;6.25;3.22;;;;;;;4.88;88.01;102037.72;5064136;28;20036;-76
2022/11/27 07:47:02;;;;;;;7.25;3.40;;;;;;;4.88;87.81;102040.28;5057834;28;20586;-75
2022/11/27 07:49:27;;;;;;;6.53;3.25;;;;;;;4.87;87.73;102035.97;5065386;28;20040;-76
2022/11/27 07:51:52;;;;;;;8.65;3.33;;;;;;;4.85;88.07;102029.91;5058203;28;20605;-76
2022/11/27 07:54:18;;;;;;;7.85;2.97;;;;;;;4.86;88.19;102031.66;5060161;28;20035;-76
2022/11/27 07:56:43;;;;;;;6.80;3.40;;;;;;;4.86;88.47;102036.81;5076622;28;20649;-76
2022/11/27 07:59:08;;;;;;;5.57;2.92;;;;;;;4.86;88.92;102032.53;5057311;28;20048;-77
2022/11/27 08:01:33;;;;;;;7.45;3.35;;;;;;;4.89;88.67;102020.50;5059158;28;20021;-76
2022/11/27 08:03:59;;;;;;;6.07;3.15;;;;;;;4.89;89.13;102016.22;5059650;28;20039;-76
2022/11/27 08:06:26;;;;;;;6.25;3.13;;;;;;;4.90;89.04;102012.81;5059766;28;20746;-76
2022/11/27 08:08:53;;;;;;;7.10;3.35;;;;;;;4.92;89.25;102007.66;5059117;28;20116;-76
2022/11/27 08:11:21;;;;;;;7.57;3.42;;;;;;;4.90;88.87;101999.94;5061678;28;20028;-76
2022/11/27 08:13:47;;;;;;;8.02;3.53;;;;;;;4.88;89.00;102003.28;5057910;28;20387;-76
2022/11/27 08:16:13;;;;;;;8.10;3.35;;;;;;;4.87;89.31;101997.28;5061899;28;20506;-76
2022/11/27 08:18:38;;;;;;;7.13;3.22;;;;;;;4.86;89.59;101990.41;5064722;28;20053;-76
2022/11/27 08:21:03;;;;;;;9.57;3.50;;;;;;;4.88;89.70;101991.28;5063222;28;20021;-76
2022/11/27 08:23:29;;;;;;;6.43;3.60;;;;;;;4.88;89.90;101986.13;5061910;28;20021;-76
2022/11/27 08:25:54;;;;;;;7.53;3.60;;;;;;;4.89;89.33;101984.41;5081902;28;20031;-76
2022/11/27 08:28:19;;;;;;;5.90;3.55;;;;;;;4.90;89.87;101992.19;5065109;28;20037;-76
2022/11/27 08:30:44;;;;;;;6.93;3.63;;;;;;;4.91;90.17;101983.63;5081250;28;20044;-76
2022/11/27 08:33:12;;;;;;;8.37;3.57;;;;;;;4.91;90.04;101986.19;5076294;28;20032;-77
2022/11/27 08:35:37;;;;;;;6.73;3.20;;;;;;;4.93;90.52;101979.34;5062209;28;20054;-76
2022/11/27 08:38:02;;;;;;;7.63;3.40;;;;;;;4.96;90.38;101975.94;5076470;28;20054;-76
2022/11/27 08:40:27;;;;;;;9.83;3.97;;;;;;;4.98;90.56;101980.28;5080310;28;20126;-76
2022/11/27 08:42:53;;;;;;;6.47;3.47;;;;;;;4.99;90.41;101971.69;5054533;28;20082;-76
2022/11/27 08:45:18;;;;;;;9.40;3.90;;;;;;;5.01;90.72;101974.31;5076904;28;20386;-76
2022/11/27 08:47:43;;;;;;;9.23;3.70;;;;;;;5.04;90.69;101978.63;5074311;28;20200;-76
2022/11/27 08:50:09;;;;;;;6.57;3.63;;;;;;;5.05;90.84;101980.38;5070272;28;20382;-76
2022/11/27 08:52:34;;;;;;;6.15;3.38;;;;;;;5.06;90.42;101970.06;5076584;28;20135;-76
2022/11/27 08:54:59;;;;;;;6.55;3.72;;;;;;;5.08;90.87;101977.84;5066117;28;20031;-76
2022/11/27 08:57:25;;;;;;;8.95;3.50;;;;;;;5.10;90.67;101969.28;5067459;28;20029;-76
2022/11/27 08:59:50;;;;;;;6.70;3.45;;;;;;;5.13;91.08;101974.50;5074751;28;20039;-76
2022/11/27 09:02:15;;;;;;;6.20;3.70;;;;;;;5.14;90.95;101970.19;5084792;28;20059;-76
2022/11/27 09:04:40;;;;;;;8.47;3.67;;;;;;;5.17;90.59;101972.81;5080204;28;20052;-76
2022/11/27 09:07:06;;;;;;;8.65;4.15;;;;;;;5.18;90.63;101965.97;5066134;28;20032;-76
2022/11/27 09:09:31;;;;;;;8.03;3.87;;;;;;;5.20;90.81;101965.13;5063386;28;20490;-76
2022/11/27 09:11:56;;;;;;;7.75;3.53;;;;;;;5.21;91.21;101972.03;5082240;28;20479;-76
2022/11/27 09:14:22;;;;;;;8.80;3.83;;;;;;;5.23;91.06;101969.47;5072208;28;20032;-76
2022/11/27 09:16:47;;;;;;;6.07;3.45;;;;;;;5.24;90.40;101984.09;5070198;28;20108;-76
2022/11/27 09:19:12;;;;;;;7.45;3.58;;;;;;;5.24;90.89;101972.06;5067739;28;20052;-76
2022/11/27 09:21:38;;;;;;;6.93;3.75;;;;;;;5.24;90.50;101982.41;5067841;28;20116;-76
2022/11/27 09:24:03;;;;;;;5.88;3.45;;;;;;;5.27;90.49;101987.59;5087134;28;20031;-76
2022/11/27 09:26:29;;;;;;;7.20;3.55;;;;;;;5.29;90.51;101985.91;5069226;28;20483;-76
2022/11/27 09:28:57;;;;;;;7.38;3.58;;;;;;;5.33;90.71;101986.81;5077585;28;20081;-76
2022/11/27 09:31:23;;;;;;;8.45;3.45;;;;;;;5.38;90.60;101981.72;5073688;28;20024;-76
2022/11/27 09:33:48;;;;;;;9.15;3.80;;;;;;;5.37;90.82;101990.31;5062635;28;20035;-77
2022/11/27 09:36:20;;;;;;;8.35;3.55;;;;;;;5.40;90.43;101988.63;5068134;28;20557;-76
2022/11/27 09:38:45;;;;;;;7.25;3.67;;;;;;;5.44;90.82;101989.56;5072096;28;20033;-75
2022/11/27 09:41:10;;;;;;;6.53;3.30;;;;;;;5.46;90.90;101987.88;5062562;28;20487;-76
2022/11/27 09:43:50;;;;;;;5.45;3.55;;;;;;;5.49;90.98;101990.47;5066003;28;20032;-76
2022/11/27 09:46:44;;;;;;;8.98;3.75;;;;;;;5.52;90.98;101987.09;5064492;28;20068;-76
2022/11/27 09:49:24;;;;;;;7.85;3.65;;;;;;;5.54;91.19;101982.81;5063975;28;20595;-75
2022/11/27 09:51:57;;;;;;;7.18;3.63;;;;;;;5.57;90.78;101990.56;5063997;28;20050;-75
2022/11/27 09:54:30;;;;;;;7.75;3.80;;;;;;;5.56;90.62;101983.69;5063617;28;20060;-75
2022/11/27 09:56:57;;;;;;;6.57;3.53;;;;;;;5.58;90.97;101976.81;5063734;28;20101;-76
2022/11/27 09:59:37;;;;;;;9.07;3.65;;;;;;;5.60;90.77;101975.13;5065718;28;20030;-75
2022/11/27 10:02:14;;;;;;;5.60;3.03;;;;;;;5.64;90.95;101970.91;5060255;28;20041;-76
2022/11/27 10:04:40;;;;;;;6.53;3.95;;;;;;;5.66;91.16;101969.19;5063869;28;20746;-76
2022/11/27 10:07:32;;;;;;;6.35;3.72;;;;;;;5.69;91.09;101958.91;5062364;28;20039;-76
2022/11/27 10:10:05;;;;;;;6.05;3.53;;;;;;;5.73;91.20;101955.50;5064689;28;20056;-75
2022/11/27 10:12:45;;;;;;;7.82;4.20;;;;;;;5.77;91.23;101957.28;5058775;28;20048;-76
2022/11/27 10:15:37;;;;;;;7.72;3.72;;;;;;;5.78;91.12;101952.13;5061267;28;20031;-76
2022/11/27 10:18:16;;;;;;;10.82;4.30;;;;;;;5.81;91.30;101943.53;5062494;28;20077;-76
2022/11/27 10:20:48;;;;;;;9.70;4.00;;;;;;;5.82;91.38;101934.94;5063533;28;20028;-76
2022/11/27 10:23:42;;;;;;;8.75;4.20;;;;;;;5.85;91.58;101929.84;5061604;28;20097;-75
2022/11/27 10:26:34;;;;;;;6.80;3.67;;;;;;;5.88;90.97;101919.53;5064296;28;20115;-76
2022/11/27 10:29:09;;;;;;;8.73;4.10;;;;;;;5.90;91.42;101919.53;5057382;28;20052;-76
2022/11/27 10:31:44;;;;;;;7.55;3.97;;;;;;;5.92;91.71;101923.00;5057149;28;20107;-75
2022/11/27 10:34:23;;;;;;;7.55;3.85;;;;;;;5.96;91.55;101918.78;5076331;28;20032;-76
2022/11/27 10:36:50;;;;;;;7.20;4.15;;;;;;;5.99;91.61;101913.63;5063407;28;20032;-76
2022/11/27 10:39:35;;;;;;;9.85;4.35;;;;;;;6.02;91.42;101913.69;5074845;28;20422;-75
2022/11/27 10:42:26;;;;;;;7.78;4.20;;;;;;;6.05;91.18;101911.13;5062502;28;20037;-76
2022/11/27 10:45:03;;;;;;;7.38;3.88;;;;;;;6.07;91.14;101905.13;5063314;28;20038;-76
2022/11/27 10:47:29;;;;;;;8.10;4.15;;;;;;;6.07;90.61;101899.09;5058159;28;20056;-75
2022/11/27 10:49:56;;;;;;;8.10;4.53;;;;;;;6.06;90.87;101897.38;5062469;28;20039;-76
2022/11/27 10:52:22;;;;;;;8.27;4.28;;;;;;;6.09;91.33;101900.00;5060461;28;20375;-76
2022/11/27 10:55:00;;;;;;;8.55;4.28;;;;;;;6.10;91.06;101893.97;5061884;28;20558;-76
2022/11/27 10:58:03;;;;;;;9.05;4.10;;;;;;;6.13;91.11;101885.38;5063373;28;20030;-76
2022/11/27 11:00:28;;;;;;;6.93;3.83;;;;;;;6.13;91.02;101877.63;5075397;28;20044;-76
2022/11/27 11:03:02;;;;;;;7.28;4.43;;;;;;;6.13;90.91;101875.03;5063879;28;20021;-76
2022/11/27 11:05:29;;;;;;;7.57;4.22;;;;;;;6.12;90.96;101875.91;5064691;28;20500;-76
2022/11/27 11:08:13;;;;;;;8.30;4.15;;;;;;;6.12;91.22;101871.59;5064812;28;20032;-76
2022/11/27 11:11:00;;;;;;;8.02;4.05;;;;;;;6.11;91.08;101872.47;5060643;28;20024;-76
2022/11/27 11:13:28;;;;;;;6.90;3.88;;;;;;;6.09;90.68;101871.56;5060663;28;20036;-76
2022/11/27 11:16:10;;;;;;;7.07;4.00;;;;;;;6.09;91.11;101866.41;5059204;28;20029;-76
2022/11/27 11:18:42;;;;;;;;;;;;;;;6.13;90.80;101855.25;5062907;28;20040;-75
2022/11/27 11:21:16;;;;;;;7.75;3.95;;;;;;;6.14;91.12;101848.34;5060855;28;19924;-76
2022/11/27 11:23:42;;;;;;;7.55;3.83;;;;;;;6.14;91.02;101838.91;5060136;28;20029;-75
2022/11/27 11:26:23;;;;;;;7.82;3.95;;;;;;;6.14;90.81;101835.44;5060894;28;20036;-76
2022/11/27 11:28:55;;;;;;;6.60;3.88;;;;;;;6.15;90.58;101830.28;5063748;28;20035;-76
2022/11/27 11:31:28;;;;;;;6.68;3.83;;;;;;;6.17;90.92;101833.75;5066477;28;20028;-75
2022/11/27 11:34:21;;;;;;;8.95;4.28;;;;;;;6.19;91.11;101824.28;5064757;28;20032;-76
2022/11/27 11:37:01;;;;;;;9.70;4.10;;;;;;;6.19;90.68;101816.53;5066438;28;20029;-76
2022/11/27 11:39:30;;;;;;;9.65;4.20;;;;;;;6.21;91.28;101819.16;5067410;28;20035;-76
2022/11/27 11:41:56;;;;;;;8.95;4.63;;;;;;;6.21;90.97;101816.56;5065246;28;20034;-76
2022/11/27 11:44:35;;;;;;;7.55;3.80;;;;;;;6.25;91.47;101820.03;5066725;28;20356;-75